Time;durP1;ratioP1;P1;durP2;ratioP2;P2;SDS_P1;SDS_P2;PMS_P1;PMS_P2;Temp;Humidity;BMP_temperature;BMP_pressure;BME280_temperature;BME280_humidity;BME280_pressure;Samples;Min_cycle;Max_cycle;Signal;HPM_P1;HPM_P2
2021/12/31 00:00:36;;;;;;;4.50;1.00;;;;;;;9.79;84.05;98084.47;5026759;28;20531;-58
2021/12/31 00:03:03;;;;;;;3.45;1.20;;;;;;;9.86;83.86;98089.78;5027018;28;20566;-57
2021/12/31 00:05:29;;;;;;;2.08;0.80;;;;;;;9.89;83.76;98078.50;5026515;28;20049;-57
2021/12/31 00:07:56;;;;;;;2.30;0.90;;;;;;;9.86;83.67;98087.06;5027086;28;20436;-58
2021/12/31 00:10:23;;;;;;;2.33;0.98;;;;;;;9.73;84.58;98088.09;5026745;28;20049;-59
2021/12/31 00:12:50;;;;;;;3.05;1.10;;;;;;;9.79;84.14;98089.88;5026978;28;20067;-58
2021/12/31 00:15:16;;;;;;;1.88;0.90;;;;;;;9.88;83.68;98085.78;5026751;28;20057;-59
2021/12/31 00:17:43;;;;;;;2.95;1.23;;;;;;;9.69;84.53;98095.00;5026500;28;20037;-59
2021/12/31 00:20:19;;;;;;;2.58;1.00;;;;;;;9.51;85.21;98085.84;5026941;28;20133;-59
2021/12/31 00:23:02;;;;;;;2.17;0.88;;;;;;;9.52;85.24;98090.22;5026608;28;20045;-59
2021/12/31 00:25:33;;;;;;;2.80;1.00;;;;;;;9.65;85.33;98083.81;5026268;28;20042;-59
2021/12/31 00:28:00;;;;;;;3.15;0.90;;;;;;;9.73;84.54;98080.78;5026828;28;20049;-59
2021/12/31 00:30:27;;;;;;;2.35;0.90;;;;;;;9.68;84.87;98085.22;5026280;28;20052;-58
2021/12/31 00:32:54;;;;;;;3.58;1.00;;;;;;;9.60;84.99;98091.78;5026337;28;20038;-58
2021/12/31 00:35:22;;;;;;;2.55;1.08;;;;;;;9.67;84.86;98084.41;5026510;28;20049;-56
2021/12/31 00:37:49;;;;;;;2.55;1.55;;;;;;;9.69;85.30;98087.69;5026154;28;20064;-57
2021/12/31 00:40:18;;;;;;;2.15;0.88;;;;;;;9.64;84.87;98092.97;5026298;28;20041;-59
2021/12/31 00:42:45;;;;;;;3.33;1.05;;;;;;;9.62;84.89;98081.56;5026059;28;20064;-56
2021/12/31 00:45:15;;;;;;;2.08;1.00;;;;;;;9.53;85.27;98086.47;5025851;28;20052;-56
2021/12/31 00:47:42;;;;;;;2.05;0.93;;;;;;;9.36;86.17;98084.38;5026272;28;20509;-56
2021/12/31 00:50:10;;;;;;;2.22;0.77;;;;;;;9.27;86.62;98083.03;5026263;28;20052;-57
2021/12/31 00:52:36;;;;;;;2.83;1.20;;;;;;;9.22;86.75;98075.59;5026183;28;20076;-57
2021/12/31 00:55:04;;;;;;;3.22;1.45;;;;;;;9.22;86.82;98077.47;5026276;28;20099;-58
2021/12/31 00:57:32;;;;;;;3.03;0.98;;;;;;;9.32;86.26;98075.06;5039571;28;20428;-58
2021/12/31 00:59:58;;;;;;;5.03;1.20;;;;;;;9.34;86.04;98078.38;5031146;28;20480;-58
2021/12/31 01:02:27;;;;;;;2.90;0.80;;;;;;;9.40;85.75;98081.22;5025956;28;20050;-58
2021/12/31 01:04:56;;;;;;;3.83;1.15;;;;;;;9.67;84.41;98081.72;5026555;28;20072;-55
2021/12/31 01:07:22;;;;;;;3.00;1.00;;;;;;;9.55;85.01;98080.81;5025664;28;20734;-58
2021/12/31 01:09:49;;;;;;;1.75;0.80;;;;;;;9.39;85.83;98080.38;5026142;28;20037;-59
2021/12/31 01:12:16;;;;;;;2.70;1.02;;;;;;;9.43;85.55;98080.78;5026079;28;20405;-55
2021/12/31 01:15:03;;;;;;;2.00;0.90;;;;;;;9.52;85.27;98089.38;5025964;28;20041;-59
2021/12/31 01:18:01;;;;;;;3.38;0.90;;;;;;;9.50;85.49;98086.91;5025883;28;20052;-57
2021/12/31 01:20:28;;;;;;;3.17;1.40;;;;;;;9.42;85.37;98085.34;5025465;28;20038;-58
2021/12/31 01:22:54;;;;;;;3.03;1.15;;;;;;;9.36;85.76;98081.66;5025444;28;20041;-58
2021/12/31 01:25:21;;;;;;;3.25;1.55;;;;;;;9.41;85.80;98086.41;5026259;28;20042;-57
2021/12/31 01:27:47;;;;;;;2.78;1.30;;;;;;;9.54;85.22;98087.28;5025089;28;20110;-57
2021/12/31 01:30:14;;;;;;;3.20;1.00;;;;;;;9.72;84.16;98092.66;5024142;28;20412;-56
2021/12/31 01:32:42;;;;;;;2.55;1.20;;;;;;;9.57;83.96;98094.94;5026152;28;20054;-59
2021/12/31 01:35:12;;;;;;;3.53;0.90;;;;;;;9.41;84.35;98093.69;5025702;28;20049;-56
2021/12/31 01:37:38;;;;;;;2.83;1.20;;;;;;;9.33;85.10;98094.81;5025874;28;20049;-58
2021/12/31 01:40:06;;;;;;;2.20;1.00;;;;;;;9.36;85.15;98091.63;5025520;28;20046;-59
2021/12/31 01:42:33;;;;;;;2.42;1.13;;;;;;;9.21;83.96;98100.97;5024954;28;20717;-56
2021/12/31 01:45:15;;;;;;;2.92;1.10;;;;;;;9.05;85.51;98093.44;5026176;28;20060;-59
2021/12/31 01:50:32;;;;;;;1.83;0.80;;;;;;;8.73;84.86;98096.28;5015369;28;20060;-58
2021/12/31 01:52:59;;;;;;;4.88;1.27;;;;;;;8.44;87.35;98100.22;5024277;28;20045;-59
2021/12/31 01:55:30;;;;;;;4.32;1.20;;;;;;;8.14;88.20;98095.44;5026081;28;20053;-58
2021/12/31 01:57:57;;;;;;;4.33;1.13;;;;;;;7.81;88.55;98096.47;5043951;28;20041;-59
2021/12/31 02:00:23;;;;;;;2.65;1.00;;;;;;;7.60;89.44;98097.63;5029655;28;20045;-58
2021/12/31 02:02:51;;;;;;;3.63;1.20;;;;;;;7.87;89.86;98086.69;5036944;28;20041;-58
2021/12/31 02:05:20;;;;;;;2.15;0.90;;;;;;;7.88;87.56;98089.19;5035034;28;20056;-57
2021/12/31 02:07:47;;;;;;;2.30;1.08;;;;;;;7.77;87.08;98097.94;5031039;28;20041;-58
2021/12/31 02:10:14;;;;;;;3.30;1.20;;;;;;;7.37;89.67;98096.28;5015906;28;20033;-59
2021/12/31 02:12:45;;;;;;;3.35;1.20;;;;;;;7.47;89.73;98101.19;5028857;28;20524;-58
2021/12/31 02:15:15;;;;;;;3.35;1.27;;;;;;;7.73;90.45;98102.13;5028935;28;20208;-58
2021/12/31 02:17:44;;;;;;;3.42;1.25;;;;;;;7.57;88.52;98092.66;5009235;28;20046;-58
2021/12/31 02:20:12;;;;;;;3.83;1.40;;;;;;;7.60;89.52;98098.47;5018485;28;20052;-56
2021/12/31 02:22:39;;;;;;;3.83;1.27;;;;;;;7.76;90.10;98099.84;5028614;28;20041;-57
2021/12/31 02:25:07;;;;;;;4.60;1.60;;;;;;;7.72;89.89;98090.53;5029111;28;20057;-56
2021/12/31 02:27:38;;;;;;;2.95;1.80;;;;;;;7.74;89.85;98087.63;5028885;28;20029;-58
2021/12/31 02:30:07;;;;;;;3.47;1.50;;;;;;;7.65;90.21;98082.47;5028327;28;20057;-56
2021/12/31 02:32:34;;;;;;;4.55;1.50;;;;;;;7.61;90.28;98072.31;5029709;28;20456;-58
2021/12/31 02:35:00;;;;;;;3.58;1.25;;;;;;;7.22;89.69;98081.19;5028552;28;20045;-58
2021/12/31 02:37:28;;;;;;;3.60;1.38;;;;;;;7.09;91.50;98076.69;5027574;28;20033;-57
2021/12/31 02:39:55;;;;;;;2.47;1.25;;;;;;;7.06;91.61;98081.66;5028851;28;20045;-58
2021/12/31 02:42:22;;;;;;;2.85;1.20;;;;;;;7.07;91.48;98076.06;5027199;28;20147;-59
2021/12/31 02:44:50;;;;;;;3.50;1.50;;;;;;;7.11;91.77;98080.00;5029311;28;20052;-59
2021/12/31 02:47:17;;;;;;;4.70;1.75;;;;;;;7.18;91.32;98068.38;5029120;28;20048;-59
2021/12/31 02:49:46;;;;;;;5.55;1.77;;;;;;;7.08;91.36;98066.94;5028136;28;20042;-58
2021/12/31 02:52:15;;;;;;;4.22;1.20;;;;;;;7.01;91.35;98071.53;5028926;28;20107;-59
2021/12/31 02:54:45;;;;;;;5.55;1.70;;;;;;;6.99;91.89;98070.91;5028284;28;20068;-58
2021/12/31 02:57:14;;;;;;;3.47;1.92;;;;;;;6.90;91.36;98056.88;5039386;28;20045;-57
2021/12/31 02:59:41;;;;;;;5.28;1.63;;;;;;;6.86;92.28;98064.50;5035225;28;20044;-57
2021/12/31 03:02:08;;;;;;;3.10;1.40;;;;;;;6.98;92.34;98069.25;5028602;28;20049;-59
2021/12/31 03:04:38;;;;;;;3.40;1.45;;;;;;;7.05;91.89;98066.53;5043338;28;20068;-59
2021/12/31 03:07:09;;;;;;;4.38;1.58;;;;;;;7.09;91.66;98067.78;5048205;28;20033;-59
2021/12/31 03:09:38;;;;;;;3.42;1.30;;;;;;;6.84;90.66;98055.00;5037898;28;20049;-59
2021/12/31 03:12:07;;;;;;;4.63;1.75;;;;;;;6.47;92.05;98047.41;5026297;28;20076;-55
2021/12/31 03:14:34;;;;;;;3.22;1.60;;;;;;;6.69;93.20;98049.84;5028540;28;20400;-57
2021/12/31 03:17:02;;;;;;;6.38;2.00;;;;;;;6.87;93.30;98057.28;5028407;28;20033;-58
2021/12/31 03:19:29;;;;;;;7.68;1.95;;;;;;;7.01;92.96;98061.56;5027564;28;20042;-58
2021/12/31 03:21:55;;;;;;;5.05;2.17;;;;;;;7.09;92.59;98060.53;5028510;28;20677;-59
2021/12/31 03:24:22;;;;;;;3.75;1.90;;;;;;;7.01;91.92;98064.28;5028037;28;20048;-59
2021/12/31 03:26:49;;;;;;;4.15;2.03;;;;;;;6.93;91.91;98061.81;5019555;28;20048;-59
2021/12/31 03:29:16;;;;;;;3.75;1.92;;;;;;;6.88;92.49;98065.16;5026269;28;20171;-59
2021/12/31 03:31:43;;;;;;;4.55;2.05;;;;;;;6.79;92.38;98073.66;5028370;28;20045;-59
2021/12/31 03:34:10;;;;;;;3.80;1.80;;;;;;;6.48;90.81;98065.19;5027212;28;20042;-59
2021/12/31 03:36:37;;;;;;;3.75;1.42;;;;;;;6.26;91.74;98073.47;5029848;28;20420;-59
2021/12/31 03:39:04;;;;;;;3.15;1.48;;;;;;;6.07;92.47;98077.81;5026324;28;20049;-59
2021/12/31 03:41:31;;;;;;;3.95;1.80;;;;;;;5.96;93.27;98076.53;5027304;28;20045;-59
2021/12/31 03:43:58;;;;;;;3.75;1.85;;;;;;;5.86;93.08;98071.53;5021259;28;20052;-59
2021/12/31 03:46:24;;;;;;;4.30;2.15;;;;;;;5.81;93.69;98074.84;5027465;28;20548;-59
2021/12/31 03:48:51;;;;;;;5.68;2.22;;;;;;;5.67;93.84;98075.84;5027440;28;20699;-59
2021/12/31 03:51:18;;;;;;;6.93;2.08;;;;;;;5.65;93.99;98069.84;5027288;28;20068;-59
2021/12/31 03:53:44;;;;;;;11.07;2.70;;;;;;;5.64;94.31;98066.31;5027826;28;20052;-59
2021/12/31 03:56:11;;;;;;;6.18;2.10;;;;;;;5.57;94.37;98070.88;5028824;28;20056;-57
2021/12/31 03:58:38;;;;;;;4.05;1.92;;;;;;;5.52;94.76;98074.16;5042181;28;20045;-57
2021/12/31 04:01:05;;;;;;;6.47;3.10;;;;;;;5.60;94.90;98073.13;5021335;28;20054;-57
2021/12/31 04:03:32;;;;;;;9.68;2.50;;;;;;;5.43;94.17;98078.06;5027140;28;20042;-55
2021/12/31 04:05:58;;;;;;;4.93;2.33;;;;;;;5.39;95.18;98072.28;5027450;28;20057;-57
2021/12/31 04:08:25;;;;;;;5.32;2.60;;;;;;;5.68;95.32;98069.47;5027042;28;20045;-56
2021/12/31 04:10:51;;;;;;;7.57;3.10;;;;;;;5.77;95.20;98076.28;5041885;28;20056;-59
2021/12/31 04:13:18;;;;;;;6.95;2.80;;;;;;;5.99;95.24;98076.13;5047276;28;20037;-59
2021/12/31 04:15:45;;;;;;;6.03;3.45;;;;;;;6.01;94.65;98065.97;5046674;28;20037;-59
2021/12/31 04:18:11;;;;;;;5.95;3.03;;;;;;;5.87;94.54;98059.78;5047171;28;20036;-59
2021/12/31 04:20:43;;;;;;;10.65;3.25;;;;;;;5.81;94.17;98058.72;5038025;28;20424;-59
2021/12/31 04:23:27;;;;;;;6.65;2.70;;;;;;;5.72;94.26;98057.28;5026798;28;20138;-60
2021/12/31 04:25:55;;;;;;;5.88;3.17;;;;;;;5.90;94.66;98056.66;5028337;28;20057;-59
2021/12/31 04:28:21;;;;;;;6.03;3.20;;;;;;;5.97;94.82;98062.88;5046466;28;20041;-59
2021/12/31 04:30:48;;;;;;;6.68;3.47;;;;;;;5.96;94.37;98057.72;5034125;28;20042;-59
2021/12/31 04:33:15;;;;;;;6.72;3.00;;;;;;;5.95;94.33;98054.22;5029142;28;20065;-59
2021/12/31 04:35:41;;;;;;;5.45;2.83;;;;;;;6.04;94.12;98044.09;5042404;28;20044;-59
2021/12/31 04:38:08;;;;;;;5.32;3.08;;;;;;;6.03;94.21;98049.66;5041076;28;20389;-59
2021/12/31 04:40:35;;;;;;;5.03;2.40;;;;;;;5.87;93.44;98040.97;5025666;28;20048;-59
2021/12/31 04:43:01;;;;;;;6.80;2.70;;;;;;;5.91;94.59;98049.44;5026622;28;20648;-58
2021/12/31 04:45:28;;;;;;;6.05;2.70;;;;;;;5.96;94.20;98052.34;5026618;28;20049;-59
2021/12/31 04:47:55;;;;;;;5.43;2.65;;;;;;;5.77;93.75;98052.13;5022643;28;20034;-59
2021/12/31 04:50:21;;;;;;;4.97;2.40;;;;;;;5.78;94.15;98051.06;5015023;28;20050;-59
2021/12/31 04:52:48;;;;;;;5.22;2.45;;;;;;;5.75;94.25;98059.53;5015623;28;20045;-59
2021/12/31 04:55:14;;;;;;;7.97;2.55;;;;;;;5.52;93.92;98055.34;5017467;28;20504;-59
2021/12/31 04:57:46;;;;;;;4.68;2.55;;;;;;;5.55;94.56;98049.59;5017625;28;20166;-59
2021/12/31 05:00:14;;;;;;;5.50;2.92;;;;;;;5.48;94.05;98046.03;5020135;28;20049;-59
2021/12/31 05:02:41;;;;;;;5.47;2.42;;;;;;;5.32;94.11;98045.38;5026745;28;20045;-57
2021/12/31 05:05:08;;;;;;;4.75;2.83;;;;;;;5.34;94.58;98045.16;5026085;28;20510;-57
2021/12/31 05:07:34;;;;;;;5.10;2.30;;;;;;;5.24;94.25;98045.56;5026514;28;20044;-59
2021/12/31 05:10:01;;;;;;;4.22;2.58;;;;;;;5.21;94.71;98043.28;5026245;28;20049;-59
2021/12/31 05:12:31;;;;;;;6.68;3.20;;;;;;;5.23;95.41;98041.19;5026492;28;20041;-57
2021/12/31 05:15:00;;;;;;;6.85;3.35;;;;;;;5.05;94.41;98044.44;5025520;28;20126;-56
2021/12/31 05:17:27;;;;;;;5.32;2.72;;;;;;;4.95;94.91;98051.00;5013714;28;20041;-58
2021/12/31 05:19:54;;;;;;;6.85;3.50;;;;;;;4.97;95.13;98050.00;5019287;28;20065;-57
2021/12/31 05:22:20;;;;;;;5.47;2.88;;;;;;;4.94;95.33;98056.59;5024908;28;20037;-59
2021/12/31 05:24:47;;;;;;;5.68;3.10;;;;;;;4.90;95.14;98048.06;5024247;28;20045;-59
2021/12/31 05:27:14;;;;;;;6.25;3.30;;;;;;;4.88;95.67;98050.16;5023348;28;20052;-56
2021/12/31 05:29:40;;;;;;;6.22;2.90;;;;;;;4.78;95.11;98052.34;5023178;28;20095;-57
2021/12/31 05:32:07;;;;;;;6.65;3.15;;;;;;;4.91;95.99;98052.41;5027152;28;20038;-59
2021/12/31 05:34:34;;;;;;;7.05;3.25;;;;;;;4.90;95.63;98052.63;5029979;28;20623;-57
2021/12/31 05:37:01;;;;;;;7.68;3.65;;;;;;;5.00;95.81;98045.03;5029278;28;20425;-58
2021/12/31 05:39:27;;;;;;;7.80;4.10;;;;;;;5.12;95.80;98039.13;5029977;28;20048;-56
2021/12/31 05:41:54;;;;;;;8.02;3.22;;;;;;;4.97;95.00;98039.25;5044696;28;20095;-57
2021/12/31 05:44:22;;;;;;;9.32;3.60;;;;;;;4.98;95.53;98035.53;5050118;28;20052;-58
2021/12/31 05:46:50;;;;;;;8.52;3.33;;;;;;;4.95;95.05;98029.53;5034793;28;20092;-58
2021/12/31 05:49:21;;;;;;;;;;;;;;;4.81;95.37;98027.81;5029957;28;20536;-59
2021/12/31 05:51:47;;;;;;;7.22;2.95;;;;;;;4.72;94.98;98027.13;5028797;28;19925;-58
2021/12/31 05:54:14;;;;;;;5.68;2.92;;;;;;;4.62;95.19;98026.66;5029198;28;20053;-57
2021/12/31 05:56:40;;;;;;;7.13;2.95;;;;;;;4.64;95.49;98030.81;5034708;28;20052;-59
2021/12/31 05:59:07;;;;;;;5.38;2.70;;;;;;;4.60;95.40;98034.09;5028920;28;20061;-58
2021/12/31 06:01:33;;;;;;;7.72;3.20;;;;;;;4.80;95.91;98034.22;5029048;28;20455;-57
2021/12/31 06:04:00;;;;;;;9.30;4.75;;;;;;;4.90;95.61;98034.66;5030044;28;20069;-59
2021/12/31 06:06:27;;;;;;;6.30;2.85;;;;;;;4.87;95.23;98043.09;5030603;28;20164;-59
2021/12/31 06:08:53;;;;;;;5.78;3.42;;;;;;;4.84;95.21;98038.16;5048950;28;20049;-59
2021/12/31 06:11:20;;;;;;;6.68;3.10;;;;;;;4.84;95.26;98038.16;5048203;28;20049;-59
2021/12/31 06:13:54;;;;;;;6.35;2.67;;;;;;;4.91;95.75;98027.44;5048976;28;20048;-59
2021/12/31 06:16:23;;;;;;;7.22;2.80;;;;;;;4.86;95.18;98035.28;5049121;28;20079;-59
2021/12/31 06:18:50;;;;;;;6.72;3.30;;;;;;;4.86;95.35;98037.97;5034798;28;20125;-59
2021/12/31 06:21:17;;;;;;;9.15;3.22;;;;;;;4.90;95.56;98033.84;5022474;28;20488;-58
2021/12/31 06:23:43;;;;;;;6.55;2.90;;;;;;;5.05;95.54;98037.22;5029189;28;20045;-56
2021/12/31 06:26:28;;;;;;;6.32;3.55;;;;;;;5.00;95.07;98038.84;5027301;28;20132;-56
2021/12/31 06:28:55;;;;;;;6.55;3.47;;;;;;;4.88;94.83;98042.09;5027517;28;20026;-56
2021/12/31 06:31:22;;;;;;;5.70;2.50;;;;;;;4.93;95.67;98041.47;5028776;28;20103;-61
2021/12/31 06:33:49;;;;;;;5.65;2.60;;;;;;;4.84;95.12;98046.19;5028080;28;20048;-58
2021/12/31 06:36:16;;;;;;;8.93;2.67;;;;;;;4.79;95.17;98040.59;5027687;28;20041;-58
2021/12/31 06:38:43;;;;;;;5.50;3.10;;;;;;;4.84;95.62;98045.38;5028534;28;20049;-55
2021/12/31 06:41:10;;;;;;;4.68;2.65;;;;;;;4.86;95.79;98043.31;5028804;28;20060;-57
2021/12/31 06:43:37;;;;;;;4.68;2.67;;;;;;;4.88;95.73;98049.31;5027914;28;20071;-57
2021/12/31 06:46:03;;;;;;;4.32;2.45;;;;;;;4.87;95.73;98042.28;5028835;28;20072;-57
2021/12/31 06:48:30;;;;;;;4.93;2.78;;;;;;;4.90;95.88;98047.28;5021462;28;20409;-58
2021/12/31 06:50:56;;;;;;;5.05;2.85;;;;;;;4.88;95.77;98052.00;5008622;28;20042;-59
2021/12/31 06:53:23;;;;;;;5.18;2.90;;;;;;;4.85;95.42;98055.06;5026348;28;20045;-59
2021/12/31 06:55:49;;;;;;;6.43;2.63;;;;;;;4.87;95.67;98053.03;5028498;28;20061;-58
2021/12/31 06:58:16;;;;;;;3.92;2.00;;;;;;;4.69;94.50;98057.06;5048607;28;20029;-58
2021/12/31 07:00:43;;;;;;;4.90;2.53;;;;;;;4.79;95.52;98057.53;5028659;28;20041;-57
2021/12/31 07:03:11;;;;;;;4.80;2.28;;;;;;;4.74;95.11;98057.28;5028961;28;20694;-59
2021/12/31 07:05:42;;;;;;;7.93;3.17;;;;;;;4.77;95.27;98070.31;5027917;28;20037;-59
2021/12/31 07:08:10;;;;;;;4.63;2.38;;;;;;;4.77;95.61;98070.31;5027842;28;20631;-59
2021/12/31 07:10:37;;;;;;;8.50;3.05;;;;;;;4.60;94.25;98063.59;5023603;28;20046;-60
2021/12/31 07:13:10;;;;;;;4.32;2.50;;;;;;;4.27;93.65;98057.78;5026253;28;20051;-61
2021/12/31 07:15:48;;;;;;;5.07;2.50;;;;;;;4.25;94.41;98054.50;5025024;28;20111;-61
2021/12/31 07:18:19;;;;;;;6.20;3.25;;;;;;;4.34;95.07;98059.69;5031494;28;20041;-61
2021/12/31 07:20:47;;;;;;;8.02;4.15;;;;;;;4.35;95.08;98059.50;5025645;28;20037;-61
2021/12/31 07:23:16;;;;;;;6.63;3.30;;;;;;;4.24;94.61;98055.50;5026005;28;20049;-61
2021/12/31 07:25:43;;;;;;;5.15;2.90;;;;;;;4.09;94.07;98054.75;5025883;28;20076;-61
2021/12/31 07:28:12;;;;;;;5.32;3.08;;;;;;;4.15;95.79;98045.94;5025871;28;20045;-61
2021/12/31 07:30:40;;;;;;;8.27;3.97;;;;;;;4.35;95.72;98047.94;5025499;28;20054;-61
2021/12/31 07:33:14;;;;;;;9.00;4.50;;;;;;;4.55;95.79;98048.94;5024868;28;20045;-61
2021/12/31 07:35:41;;;;;;;7.28;4.05;;;;;;;5.04;96.14;98043.63;5025252;28;20041;-61
2021/12/31 07:38:11;;;;;;;8.82;4.15;;;;;;;5.32;96.17;98047.25;5025106;28;20065;-60
2021/12/31 07:40:39;;;;;;;6.68;2.90;;;;;;;5.59;95.79;98053.53;5025363;28;20042;-61
2021/12/31 07:43:07;;;;;;;8.57;3.50;;;;;;;5.66;95.30;98061.59;5026017;28;20753;-61
2021/12/31 07:45:34;;;;;;;8.48;3.47;;;;;;;5.47;93.34;98063.19;5023053;28;20099;-61
2021/12/31 07:48:02;;;;;;;6.28;2.90;;;;;;;5.50;94.52;98061.97;5024287;28;20412;-60
2021/12/31 07:50:29;;;;;;;6.35;3.03;;;;;;;5.39;93.63;98068.75;5025050;28;20052;-61
2021/12/31 07:52:56;;;;;;;6.80;3.75;;;;;;;5.33;94.33;98056.94;5031397;28;20052;-61
2021/12/31 07:55:23;;;;;;;5.85;3.10;;;;;;;5.25;94.28;98057.13;5023326;28;20049;-60
2021/12/31 07:57:49;;;;;;;9.05;4.25;;;;;;;5.28;94.79;98060.25;5020100;28;20049;-61
2021/12/31 08:00:16;;;;;;;7.72;4.18;;;;;;;5.36;94.71;98063.75;5025316;28;20124;-61
2021/12/31 08:02:43;;;;;;;7.72;3.95;;;;;;;5.58;95.30;98062.63;5025195;28;20273;-60
2021/12/31 08:05:10;;;;;;;7.65;4.05;;;;;;;5.62;94.80;98063.03;5025685;28;20056;-61
2021/12/31 08:07:36;;;;;;;9.32;3.90;;;;;;;5.63;94.37;98070.06;5024708;28;20053;-62
2021/12/31 08:10:03;;;;;;;8.38;4.13;;;;;;;5.71;94.26;98074.41;5035881;28;20632;-60
2021/12/31 08:12:50;;;;;;;6.45;2.95;;;;;;;5.88;94.17;98074.88;5020460;28;20045;-60
2021/12/31 08:15:17;;;;;;;7.82;3.47;;;;;;;5.97;93.83;98075.50;5031892;28;20049;-60
2021/12/31 08:17:43;;;;;;;6.32;3.40;;;;;;;6.05;93.60;98086.06;5024459;28;20048;-60
2021/12/31 08:20:10;;;;;;;6.60;3.30;;;;;;;5.97;93.11;98080.91;5023864;28;20041;-60
2021/12/31 08:22:37;;;;;;;6.75;3.28;;;;;;;6.01;93.46;98084.78;5025517;28;20099;-60
2021/12/31 08:25:04;;;;;;;7.30;3.70;;;;;;;6.05;93.08;98087.97;5025902;28;20068;-60
2021/12/31 08:27:31;;;;;;;7.03;3.67;;;;;;;6.08;92.81;98082.97;5022118;28;20045;-60
2021/12/31 08:29:57;;;;;;;7.03;3.70;;;;;;;6.08;93.16;98082.19;5021248;28;20045;-61
2021/12/31 08:32:24;;;;;;;7.10;3.85;;;;;;;6.06;93.25;98087.75;5023822;28;20045;-60
2021/12/31 08:34:50;;;;;;;6.38;3.80;;;;;;;6.05;93.13;98077.19;5036199;28;20439;-60
2021/12/31 08:37:17;;;;;;;6.43;3.42;;;;;;;6.05;93.30;98078.00;5022225;28;20052;-60
2021/12/31 08:39:44;;;;;;;7.43;4.03;;;;;;;5.89;93.50;98063.06;5023040;28;20111;-59
2021/12/31 08:42:10;;;;;;;7.28;4.80;;;;;;;5.80;94.11;98073.22;5024212;28;20428;-60
2021/12/31 08:44:38;;;;;;;9.10;3.78;;;;;;;5.84;93.98;98071.78;5024956;28;20088;-60
2021/12/31 08:47:05;;;;;;;7.10;3.80;;;;;;;5.94;93.74;98065.97;5025973;28;20049;-60
2021/12/31 08:49:32;;;;;;;6.07;3.33;;;;;;;5.93;93.60;98066.22;5026511;28;20144;-60
2021/12/31 08:52:00;;;;;;;5.47;3.08;;;;;;;5.97;93.41;98068.25;5025501;28;20057;-60
2021/12/31 08:54:28;;;;;;;4.72;2.60;;;;;;;6.11;93.19;98062.94;5024452;28;20044;-60
2021/12/31 08:56:55;;;;;;;5.72;2.85;;;;;;;6.10;92.49;98059.44;5025298;28;20052;-60
2021/12/31 08:59:22;;;;;;;3.97;2.30;;;;;;;6.16;92.45;98051.56;5024225;28;20052;-61
2021/12/31 09:01:48;;;;;;;2.90;1.58;;;;;;;6.14;92.07;98046.38;5024923;28;20057;-60
2021/12/31 09:04:15;;;;;;;4.00;1.90;;;;;;;6.16;91.82;98047.00;5023415;28;20244;-60
2021/12/31 09:06:41;;;;;;;3.65;1.83;;;;;;;6.20;91.63;98045.53;5023386;28;20045;-60
2021/12/31 09:09:08;;;;;;;3.47;1.73;;;;;;;6.25;91.54;98044.94;5022901;28;20034;-61
2021/12/31 09:11:35;;;;;;;2.35;1.33;;;;;;;6.33;91.04;98043.88;5025387;28;20042;-61
2021/12/31 09:14:01;;;;;;;3.65;1.90;;;;;;;6.24;91.06;98037.91;5024735;28;20524;-60
2021/12/31 09:16:28;;;;;;;3.95;1.58;;;;;;;6.30;91.08;98038.94;5022796;28;20048;-60
2021/12/31 09:18:55;;;;;;;4.13;2.08;;;;;;;6.23;90.97;98047.81;5023870;28;20048;-60
2021/12/31 09:21:22;;;;;;;3.40;1.67;;;;;;;6.26;91.37;98038.50;5023717;28;20124;-59
2021/12/31 09:23:49;;;;;;;3.00;1.75;;;;;;;6.25;91.10;98028.81;5023715;28;20049;-58
2021/12/31 09:26:16;;;;;;;4.47;2.10;;;;;;;6.18;91.48;98026.13;5023551;28;20053;-60
2021/12/31 09:28:44;;;;;;;4.05;2.28;;;;;;;6.30;91.24;98033.56;5023203;28;20041;-57
2021/12/31 09:31:11;;;;;;;4.13;2.40;;;;;;;6.20;91.23;98033.97;5022761;28;20049;-58
2021/12/31 09:33:38;;;;;;;4.32;2.20;;;;;;;6.27;91.54;98029.44;5019632;28;20038;-60
2021/12/31 09:36:05;;;;;;;4.40;2.22;;;;;;;6.30;91.57;98036.25;5023776;28;20057;-60
2021/12/31 09:38:32;;;;;;;4.60;1.98;;;;;;;6.42;91.49;98033.75;5026054;28;20038;-60
2021/12/31 09:40:58;;;;;;;3.50;1.80;;;;;;;6.51;91.48;98032.50;5025158;28;20056;-59
2021/12/31 09:43:25;;;;;;;3.47;1.63;;;;;;;6.66;91.21;98039.53;5025578;28;20132;-60
2021/12/31 09:45:53;;;;;;;6.28;2.03;;;;;;;6.69;90.88;98045.31;5025424;28;20051;-60
2021/12/31 09:48:24;;;;;;;2.88;1.50;;;;;;;6.79;90.67;98049.44;5022816;28;20053;-59
2021/12/31 09:50:54;;;;;;;3.15;1.58;;;;;;;6.83;90.19;98056.03;5023442;28;20064;-60
2021/12/31 09:53:23;;;;;;;4.00;1.75;;;;;;;6.90;90.03;98051.47;5029384;28;20041;-59
2021/12/31 09:55:54;;;;;;;3.78;2.10;;;;;;;6.96;90.13;98056.00;5023826;28;20151;-57
2021/12/31 09:58:24;;;;;;;3.88;2.03;;;;;;;7.11;90.00;98053.06;5020843;28;20124;-59
2021/12/31 10:01:01;;;;;;;2.85;1.60;;;;;;;7.10;89.07;98040.63;5024830;28;20045;-60
2021/12/31 10:03:32;;;;;;;4.35;1.85;;;;;;;7.17;89.37;98054.06;5023304;28;20045;-60
2021/12/31 10:06:12;;;;;;;3.00;1.80;;;;;;;7.18;89.04;98049.53;5024100;28;20489;-59
2021/12/31 10:08:44;;;;;;;3.53;1.80;;;;;;;7.28;88.82;98044.50;5025729;28;20587;-60
2021/12/31 10:11:17;;;;;;;3.78;2.00;;;;;;;7.32;88.70;98043.03;5024013;28;20096;-60
2021/12/31 10:13:51;;;;;;;3.60;1.63;;;;;;;7.47;89.15;98037.38;5029638;28;20045;-61
2021/12/31 10:16:19;;;;;;;3.47;1.42;;;;;;;7.58;88.60;98040.41;5045315;28;20069;-60
2021/12/31 10:18:46;;;;;;;2.65;1.20;;;;;;;7.79;88.33;98045.50;5046766;28;20099;-60
2021/12/31 10:21:13;;;;;;;2.35;1.20;;;;;;;7.89;86.85;98036.91;5036003;28;20044;-59
2021/12/31 10:23:40;;;;;;;3.47;1.50;;;;;;;8.01;86.47;98041.59;5029462;28;20393;-59
2021/12/31 10:26:13;;;;;;;2.20;1.13;;;;;;;7.97;86.61;98041.22;5027880;28;20049;-60
2021/12/31 10:28:59;;;;;;;4.13;1.25;;;;;;;8.02;86.52;98036.00;5029151;28;20100;-59
2021/12/31 10:31:27;;;;;;;2.67;1.10;;;;;;;8.07;86.41;98030.75;5029047;28;20495;-59
2021/12/31 10:33:55;;;;;;;2.67;1.35;;;;;;;8.05;86.19;98029.34;5029308;28;20048;-61
2021/12/31 10:36:34;;;;;;;2.95;1.23;;;;;;;8.10;86.21;98018.72;5027605;28;20052;-59
2021/12/31 10:39:25;;;;;;;2.83;1.20;;;;;;;8.08;86.56;98001.94;5025986;28;20041;-59
2021/12/31 10:42:05;;;;;;;2.75;1.30;;;;;;;8.15;86.42;98008.06;5012648;28;20053;-59
2021/12/31 10:44:52;;;;;;;3.08;1.48;;;;;;;8.23;86.83;97995.38;5026212;28;20429;-59
2021/12/31 10:47:34;;;;;;;3.17;1.48;;;;;;;8.24;86.22;98003.25;5022730;28;20132;-60
2021/12/31 10:50:04;;;;;;;2.53;1.35;;;;;;;8.27;87.01;98000.13;5026661;28;20546;-60
2021/12/31 10:52:54;;;;;;;3.70;1.98;;;;;;;8.16;87.07;98001.66;5025792;28;20497;-58
2021/12/31 10:55:29;;;;;;;3.10;1.65;;;;;;;8.27;86.98;98002.81;5028417;28;20041;-60
2021/12/31 10:58:02;;;;;;;3.90;2.20;;;;;;;8.45;86.48;98002.00;5045438;28;20041;-60
2021/12/31 11:00:35;;;;;;;3.95;1.88;;;;;;;8.52;86.42;97990.31;5048587;28;20037;-59
2021/12/31 11:03:05;;;;;;;3.60;1.73;;;;;;;8.53;86.43;97992.84;5031951;28;20074;-60
2021/12/31 11:05:34;;;;;;;3.15;1.60;;;;;;;8.60;86.03;97990.06;5028303;28;20107;-59
2021/12/31 11:08:12;;;;;;;3.60;1.95;;;;;;;8.64;86.09;97991.28;5028044;28;20053;-59
2021/12/31 11:10:40;;;;;;;3.88;2.20;;;;;;;8.60;86.48;97981.97;5028217;28;20041;-59
2021/12/31 11:13:14;;;;;;;4.15;1.90;;;;;;;8.44;86.84;97978.75;5028276;28;20129;-59
2021/12/31 11:15:43;;;;;;;3.88;2.10;;;;;;;8.46;87.07;97982.06;5026877;28;20095;-60
2021/12/31 11:18:12;;;;;;;4.70;2.22;;;;;;;8.56;86.25;97975.38;5027904;28;20041;-58
2021/12/31 11:20:42;;;;;;;4.20;1.92;;;;;;;8.54;86.31;97972.88;5027579;28;20328;-59
2021/12/31 11:23:09;;;;;;;3.70;1.80;;;;;;;8.64;86.30;97971.53;5028254;28;20042;-58
2021/12/31 11:26:09;;;;;;;3.60;2.08;;;;;;;8.59;86.24;97972.22;5026890;28;20056;-59
2021/12/31 11:28:39;;;;;;;3.95;2.05;;;;;;;8.55;86.43;97954.81;5026918;28;20495;-59
2021/12/31 11:31:18;;;;;;;4.63;2.13;;;;;;;8.67;86.37;97960.28;5027094;28;20106;-59
2021/12/31 11:33:58;;;;;;;4.60;2.50;;;;;;;8.74;86.74;97955.66;5007844;28;20065;-59
2021/12/31 11:36:57;;;;;;;3.78;1.98;;;;;;;8.63;86.11;97946.44;5008165;28;20512;-60
2021/12/31 11:39:28;;;;;;;5.03;2.42;;;;;;;8.76;86.08;97950.84;4996131;28;20689;-58
2021/12/31 11:42:01;;;;;;;4.53;2.35;;;;;;;8.74;85.91;97954.81;5015139;28;20038;-60
2021/12/31 11:44:28;;;;;;;4.13;2.25;;;;;;;8.88;85.80;97950.91;5021737;28;20049;-57
2021/12/31 11:47:17;;;;;;;4.38;1.98;;;;;;;8.99;85.60;97954.72;5024067;28;20053;-59
2021/12/31 11:49:46;;;;;;;5.63;2.80;;;;;;;9.00;85.49;97963.66;5025605;28;20041;-58
2021/12/31 11:52:20;;;;;;;6.65;2.40;;;;;;;8.96;85.60;97971.38;5025036;28;20052;-60